createdAt,value
2016-06-08T00:00:42.199Z,0
2016-06-08T00:01:42.015Z,0
2016-06-08T00:02:41.595Z,0
2016-06-08T00:03:42.253Z,0
2016-06-08T00:04:42.006Z,0
2016-06-08T00:05:41.650Z,0
2016-06-08T00:06:41.450Z,0
2016-06-08T00:07:41.452Z,0
2016-06-08T00:08:41.439Z,0
2016-06-08T00:09:41.442Z,0
2016-06-08T00:10:41.429Z,0
2016-06-08T00:11:41.479Z,0
2016-06-08T00:12:41.434Z,0
2016-06-08T00:13:41.437Z,0
2016-06-08T00:14:41.424Z,0
2016-06-08T00:15:41.427Z,0
2016-06-08T00:16:41.414Z,0
2016-06-08T00:17:41.432Z,0
2016-06-08T00:18:41.419Z,0
2016-06-08T00:19:41.421Z,0
2016-06-08T00:20:41.424Z,0
2016-06-08T00:21:41.256Z,0
2016-06-08T00:22:41.415Z,0
2016-06-08T00:23:41.401Z,0
2016-06-08T00:24:41.403Z,0
2016-06-08T00:25:41.407Z,0
2016-06-08T00:26:41.394Z,0
2016-06-08T00:27:41.397Z,0
2016-06-08T00:28:41.414Z,0
2016-06-08T00:29:41.386Z,0
2016-06-08T00:30:41.248Z,0
2016-06-08T00:31:41.392Z,0
2016-06-08T00:32:41.395Z,0
2016-06-08T00:33:41.381Z,0
2016-06-08T00:34:41.384Z,0
2016-06-08T00:35:41.386Z,0
2016-06-08T00:36:41.374Z,0
2016-06-08T00:37:41.392Z,0
2016-06-08T00:38:41.394Z,0
2016-06-08T00:39:41.367Z,0
2016-06-08T00:40:41.228Z,0
2016-06-08T00:41:42.185Z,0
2016-06-08T00:42:41.219Z,0
2016-06-08T00:43:41.361Z,0
2016-06-08T00:44:41.364Z,0
2016-06-08T00:45:41.382Z,0
2016-06-08T00:46:41.213Z,0
2016-06-08T00:47:41.357Z,0
2016-06-08T00:48:41.344Z,0
2016-06-08T00:49:41.346Z,0
2016-06-08T00:50:41.349Z,0
2016-06-08T00:51:41.336Z,0
2016-06-08T00:52:41.339Z,0
2016-06-08T00:53:41.342Z,0
2016-06-08T00:54:41.187Z,0
2016-06-08T00:55:41.332Z,0
2016-06-08T00:56:41.037Z,0
2016-06-08T00:57:41.337Z,0
2016-06-08T00:58:41.340Z,0
2016-06-08T00:59:41.326Z,0
2016-06-08T01:00:41.314Z,0
2016-06-08T01:01:41.316Z,0
2016-06-08T01:02:41.319Z,0
2016-06-08T01:03:41.165Z,0
2016-06-08T01:04:41.153Z,0
2016-06-08T01:05:41.311Z,0
2016-06-08T01:07:41.316Z,0
2016-06-08T01:08:41.319Z,0
2016-06-08T01:09:44.103Z,0
2016-06-08T01:10:42.293Z,0
2016-06-08T01:11:42.594Z,0
2016-06-08T01:12:41.283Z,0
2016-06-08T01:13:41.739Z,0
2016-06-08T01:14:41.602Z,0
2016-06-08T01:15:41.291Z,0
2016-06-08T01:16:42.622Z,0
2016-06-08T01:17:42.859Z,0
2016-06-08T01:18:42.440Z,0
2016-06-08T01:19:43.662Z,0
2016-06-08T01:20:41.821Z,0
2016-06-08T01:21:41.823Z,0
2016-06-08T01:22:41.451Z,0
2016-06-08T01:23:41.266Z,0
2016-06-08T01:24:41.268Z,0
2016-06-08T01:25:41.553Z,0
2016-06-08T01:26:41.211Z,0
2016-06-08T01:27:41.262Z,0
2016-06-08T01:28:41.248Z,0
2016-06-08T01:29:41.251Z,0
2016-06-08T01:30:41.238Z,0
2016-06-08T01:31:41.240Z,0
2016-06-08T01:32:41.243Z,0
2016-06-08T01:33:41.245Z,0
2016-06-08T01:34:41.233Z,0
2016-06-08T01:35:41.236Z,0
2016-06-08T01:36:41.223Z,0
2016-06-08T01:37:41.225Z,0
2016-06-08T01:38:41.228Z,0
2016-06-08T01:39:41.230Z,0
2016-06-08T01:40:41.218Z,0
2016-06-08T01:41:41.892Z,0
2016-06-08T01:42:41.066Z,0
2016-06-08T01:43:41.242Z,0
2016-06-08T01:44:41.213Z,0
2016-06-08T01:45:41.060Z,0
2016-06-08T01:46:41.203Z,0
2016-06-08T01:47:41.205Z,0
2016-06-08T01:48:41.208Z,0
2016-06-08T01:49:41.195Z,0
2016-06-08T01:50:41.198Z,0
2016-06-08T01:51:41.185Z,0
2016-06-08T01:52:41.188Z,0
2016-06-08T01:53:41.190Z,4
2016-06-08T01:54:41.177Z,4
2016-06-08T01:55:41.179Z,4
2016-06-08T01:56:41.620Z,0
2016-06-08T01:57:41.639Z,0
2016-06-08T01:58:41.157Z,4
2016-06-08T01:59:41.160Z,4
2016-06-08T02:00:41.162Z,4
2016-06-08T02:01:41.165Z,4
2016-06-08T02:02:41.153Z,4
2016-06-08T02:03:41.155Z,8
2016-06-08T02:04:41.001Z,4
2016-06-08T02:05:41.160Z,8
2016-06-08T02:06:41.147Z,8
2016-06-08T02:07:41.150Z,8
2016-06-08T02:08:41.137Z,12
2016-06-08T02:09:41.139Z,12
2016-06-08T02:10:41.127Z,12
2016-06-08T02:11:41.160Z,16
2016-06-08T02:12:41.133Z,12
2016-06-08T02:13:41.119Z,16
2016-06-08T02:14:41.122Z,16
2016-06-08T02:15:41.109Z,20
2016-06-08T02:16:41.111Z,20
2016-06-08T02:17:41.114Z,24
2016-06-08T02:18:41.102Z,28
2016-06-08T02:19:41.104Z,32
2016-06-08T02:20:41.091Z,36
2016-06-08T02:21:41.109Z,40
2016-06-08T02:22:41.096Z,44
2016-06-08T02:23:41.099Z,52
2016-06-08T02:24:42.665Z,56
2016-06-08T02:25:43.182Z,60
2016-06-08T02:26:42.201Z,68
2016-06-08T02:27:43.828Z,80
2016-06-08T02:28:43.003Z,84
2016-06-08T02:29:42.084Z,92
2016-06-08T02:30:40.914Z,104
2016-06-08T02:31:41.715Z,112
2016-06-08T02:32:41.154Z,124
2016-06-08T02:33:41.064Z,140
2016-06-08T02:34:40.770Z,152
2016-06-08T02:35:41.053Z,164
2016-06-08T02:36:42.509Z,184
2016-06-08T02:37:42.700Z,200
2016-06-08T02:38:41.608Z,220
2016-06-08T02:39:40.908Z,240
2016-06-08T02:40:41.801Z,256
2016-06-08T02:41:42.835Z,284
2016-06-08T02:42:41.697Z,308
2016-06-08T02:43:41.043Z,328
2016-06-08T02:44:41.186Z,356
2016-06-08T02:45:41.034Z,384
2016-06-08T02:46:41.020Z,412
2016-06-08T02:47:41.024Z,440
2016-06-08T02:48:41.041Z,472
2016-06-08T02:49:41.029Z,504
2016-06-08T02:50:41.032Z,536
2016-06-08T02:51:41.018Z,576
2016-06-08T02:52:41.005Z,612
2016-06-08T02:53:41.008Z,648
2016-06-08T02:54:40.995Z,692
2016-06-08T02:55:40.998Z,736
2016-06-08T02:56:41.344Z,776
2016-06-08T02:57:41.425Z,820
2016-06-08T02:58:40.990Z,864
2016-06-08T02:59:40.976Z,912
2016-06-08T03:00:40.979Z,964
2016-06-08T03:01:40.983Z,1012
2016-06-08T03:02:40.984Z,1068
2016-06-08T03:03:40.973Z,1120
2016-06-08T03:04:40.975Z,1172
2016-06-08T03:05:40.962Z,1228
2016-06-08T03:06:40.965Z,1284
2016-06-08T03:07:40.967Z,1344
2016-06-08T03:08:40.955Z,1400
2016-06-08T03:09:40.958Z,1460
2016-06-08T03:10:40.944Z,1520
2016-06-08T03:11:40.947Z,1584
2016-06-08T03:12:40.934Z,1648
2016-06-08T03:13:40.952Z,1712
2016-06-08T03:14:40.939Z,1780
2016-06-08T03:15:40.926Z,1852
2016-06-08T03:16:40.929Z,1924
2016-06-08T03:17:40.776Z,2000
2016-06-08T03:18:40.935Z,2088
2016-06-08T03:19:40.938Z,2196
2016-06-08T03:20:40.924Z,2300
2016-06-08T03:21:40.927Z,2416
2016-06-08T03:22:40.929Z,2572
2016-06-08T03:23:40.932Z,2716
2016-06-08T03:24:40.919Z,2848
2016-06-08T03:25:40.922Z,2968
2016-06-08T03:26:40.925Z,3076
2016-06-08T03:27:41.287Z,3184
2016-06-08T03:28:40.899Z,3292
2016-06-08T03:29:40.917Z,3388
2016-06-08T03:30:40.904Z,3496
2016-06-08T03:31:40.891Z,3608
2016-06-08T03:32:40.894Z,3708
2016-06-08T03:33:40.898Z,3828
2016-06-08T03:34:40.900Z,3968
2016-06-08T03:35:40.887Z,4104
2016-06-08T03:36:40.889Z,4232
2016-06-08T03:37:40.892Z,4364
2016-06-08T03:38:40.879Z,4480
2016-06-08T03:39:40.881Z,4628
2016-06-08T03:40:40.869Z,4952
2016-06-08T03:41:40.872Z,5332
2016-06-08T03:42:41.547Z,5628
2016-06-08T03:43:42.439Z,5672
2016-06-08T03:44:41.677Z,5712
2016-06-08T03:45:41.601Z,5808
2016-06-08T03:46:43.463Z,5896
2016-06-08T03:47:41.684Z,5996
2016-06-08T03:48:41.484Z,6152
2016-06-08T03:49:42.783Z,6400
2016-06-08T03:50:41.630Z,6660
2016-06-08T03:52:42.448Z,6924
2016-06-08T03:53:42.716Z,7128
2016-06-08T03:54:40.891Z,7308
2016-06-08T03:55:41.424Z,7444
2016-06-08T03:56:55.959Z,7848
2016-06-08T03:57:42.086Z,8264
2016-06-08T03:58:41.340Z,8640
2016-06-08T03:59:41.093Z,8656
2016-06-08T04:00:40.970Z,8572
2016-06-08T04:01:42.018Z,8824
2016-06-08T04:02:40.896Z,9616
2016-06-08T04:03:40.899Z,10284
2016-06-08T04:04:40.901Z,10544
2016-06-08T04:05:40.920Z,10644
2016-06-08T04:06:40.767Z,10760
2016-06-08T04:07:40.926Z,10780
2016-06-08T04:08:40.928Z,10952
2016-06-08T04:09:40.931Z,11192
2016-06-08T04:10:40.934Z,11704
2016-06-08T04:11:40.936Z,12224
2016-06-08T04:12:41.502Z,12428
2016-06-08T04:13:40.941Z,12484
2016-06-08T04:14:40.961Z,12712
2016-06-08T04:15:40.964Z,13216
2016-06-08T04:16:40.966Z,14208
2016-06-08T04:17:40.983Z,14944
2016-06-08T04:18:40.986Z,15232
2016-06-08T04:19:40.833Z,15488
2016-06-08T04:20:40.991Z,16000
2016-06-08T04:21:41.010Z,16608
2016-06-08T04:22:40.857Z,16960
2016-06-08T04:23:41.047Z,17376
2016-06-08T04:24:41.049Z,17056
2016-06-08T04:25:41.052Z,17120
2016-06-08T04:26:41.055Z,17280
2016-06-08T04:27:40.979Z,17312
2016-06-08T04:28:41.060Z,17472
2016-06-08T04:29:41.078Z,17408
2016-06-08T04:30:41.097Z,17792
2016-06-08T04:31:41.085Z,18112
2016-06-08T04:32:41.102Z,17888
2016-06-08T04:33:41.121Z,17760
2016-06-08T04:34:41.123Z,17248
2016-06-08T04:35:41.142Z,16512
2016-06-08T04:36:41.144Z,17696
2016-06-08T04:37:41.147Z,18368
2016-06-08T04:38:41.165Z,19360
2016-06-08T04:39:41.184Z,19936
2016-06-08T04:40:41.186Z,19200
2016-06-08T04:41:41.205Z,15264
2016-06-08T04:42:41.629Z,12404
2016-06-08T04:43:41.210Z,11624
2016-06-08T04:44:41.228Z,11616
2016-06-08T04:45:41.230Z,11560
2016-06-08T04:46:41.265Z,11540
2016-06-08T04:47:41.268Z,11540
2016-06-08T04:48:41.270Z,11588
2016-06-08T04:49:41.288Z,11680
2016-06-08T04:50:41.291Z,11792
2016-06-08T04:51:41.310Z,11912
2016-06-08T04:52:41.312Z,12056
2016-06-08T04:53:41.331Z,12232
2016-06-08T04:54:41.193Z,12460
2016-06-08T04:55:41.352Z,12716
2016-06-08T04:56:41.354Z,12968
2016-06-08T04:57:41.826Z,13216
2016-06-08T04:58:42.422Z,13464
2016-06-08T04:59:41.237Z,13580
2016-06-08T05:00:41.396Z,16864
2016-06-08T05:02:43.073Z,21472
2016-06-08T05:03:42.296Z,24384
2016-06-08T05:04:42.001Z,19072
2016-06-08T05:05:43.551Z,22592
2016-06-08T05:06:42.993Z,19904
2016-06-08T05:07:41.491Z,25440
2016-06-08T05:08:41.348Z,25472
2016-06-08T05:09:42.142Z,24128
2016-06-08T05:10:41.578Z,24576
2016-06-08T05:11:43.134Z,25792
2016-06-08T05:12:41.595Z,26944
2016-06-08T05:13:41.647Z,27008
2016-06-08T05:14:43.748Z,27232
2016-06-08T05:15:42.598Z,27904
2016-06-08T05:16:41.729Z,28544
2016-06-08T05:17:42.639Z,28896
2016-06-08T05:18:42.159Z,30112
2016-06-08T05:19:41.725Z,31776
2016-06-08T05:20:41.682Z,32544
2016-06-08T05:21:41.702Z,33344
2016-06-08T05:22:41.704Z,32864
2016-06-08T05:23:41.739Z,32128
2016-06-08T05:24:41.742Z,33696
2016-06-08T05:25:41.605Z,35488
2016-06-08T05:26:41.608Z,34368
2016-06-08T05:27:41.970Z,33344
2016-06-08T05:28:42.004Z,34144
2016-06-08T05:29:41.804Z,34752
2016-06-08T05:30:41.807Z,34880
2016-06-08T05:31:41.841Z,35008
2016-06-08T05:32:41.860Z,34688
2016-06-08T05:33:41.863Z,33824
2016-06-08T05:34:41.881Z,33728
2016-06-08T05:35:41.899Z,35360
2016-06-08T05:36:41.901Z,36000
2016-06-08T05:37:41.921Z,35648
2016-06-08T05:38:41.939Z,36096
2016-06-08T05:39:41.956Z,35008
2016-06-08T05:40:41.960Z,34720
2016-06-08T05:41:41.978Z,35744
2016-06-08T05:42:42.309Z,35456
2016-06-08T05:43:42.030Z,35232
2016-06-08T05:44:42.033Z,36672
2016-06-08T05:45:42.051Z,37376
2016-06-08T05:46:42.070Z,36448
2016-06-08T05:47:42.088Z,36960
2016-06-08T05:48:42.091Z,36032
2016-06-08T05:49:42.109Z,35648
2016-06-08T05:50:42.127Z,37632
2016-06-08T05:51:42.161Z,40224
2016-06-08T05:52:42.148Z,38784
2016-06-08T05:53:42.182Z,38112
2016-06-08T05:54:42.044Z,38176
2016-06-08T05:55:42.062Z,37344
2016-06-08T05:56:42.222Z,39488
2016-06-08T05:57:42.583Z,41568
2016-06-08T05:58:43.946Z,40608
2016-06-08T05:59:42.276Z,39840
2016-06-08T06:00:42.294Z,40320
2016-06-08T06:01:42.329Z,40448
2016-06-08T06:02:42.331Z,39744
2016-06-08T06:03:42.349Z,40800
2016-06-08T06:04:42.367Z,42912
2016-06-08T06:05:42.387Z,45120
2016-06-08T06:06:42.405Z,46944
2016-06-08T06:07:42.423Z,48640
2016-06-08T06:08:42.440Z,48704
2016-06-08T06:09:42.459Z,48064
2016-06-08T06:10:42.478Z,47776
2016-06-08T06:11:42.511Z,49536
2016-06-08T06:12:42.373Z,49408
2016-06-08T06:13:43.001Z,47552
2016-06-08T06:14:42.551Z,46816
2016-06-08T06:15:42.570Z,48192
2016-06-08T06:16:42.603Z,50272
2016-06-08T06:17:42.606Z,51328
2016-06-08T06:18:42.639Z,52128
2016-06-08T06:19:42.642Z,53536
2016-06-08T06:20:44.817Z,53856
2016-06-08T06:21:43.069Z,54528
2016-06-08T06:22:43.838Z,54080
2016-06-08T06:23:43.841Z,55264
2016-06-08T06:24:45.609Z,57536
2016-06-08T06:25:43.096Z,58592
2016-06-08T06:26:43.068Z,59296
2016-06-08T06:27:57.383Z,56352
2016-06-08T06:28:44.323Z,55136
2016-06-08T06:29:42.841Z,56736
2016-06-08T06:30:42.890Z,59872
2016-06-08T06:31:44.487Z,61184
2016-06-08T06:32:43.600Z,60832
2016-06-08T06:33:43.321Z,61280
2016-06-08T06:34:44.526Z,61632
2016-06-08T06:35:43.093Z,62240
2016-06-08T06:36:43.001Z,62592
2016-06-08T06:37:43.019Z,62336
2016-06-08T06:38:43.193Z,61696
2016-06-08T06:39:43.056Z,60032
2016-06-08T06:40:43.074Z,57216
2016-06-08T06:41:43.108Z,60000
2016-06-08T06:42:43.454Z,65024
2016-06-08T06:43:43.817Z,65888
2016-06-08T06:44:43.163Z,62176
2016-06-08T06:45:43.181Z,60192
2016-06-08T06:46:43.200Z,64800
2016-06-08T06:47:43.234Z,69504
2016-06-08T06:48:43.236Z,69088
2016-06-08T06:49:43.270Z,65056
2016-06-08T06:50:43.288Z,59712
2016-06-08T06:51:43.306Z,56352
2016-06-08T06:52:43.341Z,58144
2016-06-08T06:53:43.359Z,62848
2016-06-08T06:54:43.378Z,68192
2016-06-08T06:55:43.396Z,72896
2016-06-08T06:56:43.414Z,69664
2016-06-08T06:57:43.291Z,63744
2016-06-08T06:58:43.857Z,62848
2016-06-08T06:59:43.532Z,67136
2016-06-08T07:00:43.362Z,71648
2016-06-08T07:01:43.537Z,74432
2016-06-08T07:02:43.555Z,77120
2016-06-08T07:03:43.574Z,80160
2016-06-08T07:04:43.296Z,80800
2016-06-08T07:05:43.312Z,78496
2016-06-08T07:06:43.676Z,76864
2016-06-08T07:07:43.679Z,74912
2016-06-08T07:08:43.712Z,72416
2016-06-08T07:09:43.730Z,72032
2016-06-08T07:10:43.732Z,76672
2016-06-08T07:11:43.610Z,80960
2016-06-08T07:12:43.785Z,82816
2016-06-08T07:13:44.053Z,82528
2016-06-08T07:14:43.837Z,81952
2016-06-08T07:15:43.870Z,80224
2016-06-08T07:16:43.889Z,78368
2016-06-08T07:17:43.909Z,77472
2016-06-08T07:18:43.926Z,80256
2016-06-08T07:19:44.074Z,83168
2016-06-08T07:20:43.998Z,84480
2016-06-08T07:21:43.878Z,83872
2016-06-08T07:22:44.033Z,81664
2016-06-08T07:23:44.060Z,82784
2016-06-08T07:24:43.919Z,83264
2016-06-08T07:25:44.109Z,84768
2016-06-08T07:26:44.112Z,86592
2016-06-08T07:27:43.990Z,88352
2016-06-08T07:28:44.212Z,87200
2016-06-08T07:29:44.198Z,84384
2016-06-08T07:30:44.217Z,79136
2016-06-08T07:31:44.235Z,80288
2016-06-08T07:32:44.285Z,86752
2016-06-08T07:33:44.319Z,92448
2016-06-08T07:34:44.322Z,91680
2016-06-08T07:35:44.345Z,88800
2016-06-08T07:36:44.364Z,85216
2016-06-08T07:37:44.383Z,82080
2016-06-08T07:38:44.401Z,82624
2016-06-08T07:39:46.153Z,85440
2016-06-08T07:40:45.958Z,89408
2016-06-08T07:41:45.070Z,90528
2016-06-08T07:42:58.682Z,87680
2016-06-08T07:43:45.544Z,88064
2016-06-08T07:44:44.750Z,89184
2016-06-08T07:45:58.674Z,92608
2016-06-08T07:46:44.896Z,93920
2016-06-08T07:47:44.617Z,92064
2016-06-08T07:48:45.682Z,90080
2016-06-08T07:49:46.466Z,88448
2016-06-08T07:50:44.699Z,86592
2016-06-08T07:51:46.373Z,86560
2016-06-08T07:52:44.766Z,87968
2016-06-08T07:53:46.269Z,89376
2016-06-08T07:54:46.068Z,88224
2016-06-08T07:55:45.243Z,82272
2016-06-08T07:56:45.154Z,77056
2016-06-08T07:57:44.891Z,72832
2016-06-08T07:58:46.690Z,68000
2016-06-08T07:59:44.912Z,67904
2016-06-08T08:00:44.945Z,72352
2016-06-08T08:01:44.964Z,75904
2016-06-08T08:02:44.998Z,78784
2016-06-08T08:03:44.861Z,81312
2016-06-08T08:04:45.050Z,85216
2016-06-08T08:05:45.069Z,89120
2016-06-08T08:06:44.947Z,86336
2016-06-08T08:07:44.965Z,80288
2016-06-08T08:08:45.140Z,76896
2016-06-08T08:09:45.189Z,77568
2016-06-08T08:10:45.255Z,78176
2016-06-08T08:11:45.057Z,83328
2016-06-08T08:12:45.247Z,92832
2016-06-08T08:13:45.641Z,99520
2016-06-08T08:14:45.291Z,98720
2016-06-08T08:15:45.310Z,100928
2016-06-08T08:16:45.343Z,101632
2016-06-08T08:17:45.190Z,104800
2016-06-08T08:18:45.396Z,107040
2016-06-08T08:19:45.399Z,106176
2016-06-08T08:20:45.291Z,87904
2016-06-08T08:21:45.451Z,72448
2016-06-08T08:22:45.500Z,68448
2016-06-08T08:23:45.519Z,63936
2016-06-08T08:24:45.553Z,65312
2016-06-08T08:25:45.554Z,69984
2016-06-08T08:26:45.590Z,73376
2016-06-08T08:27:45.451Z,69984
2016-06-08T08:28:46.595Z,70144
2016-06-08T08:29:45.504Z,70464
2016-06-08T08:30:45.678Z,67936
2016-06-08T08:31:45.696Z,68544
2016-06-08T08:32:45.730Z,73440
2016-06-08T08:33:45.748Z,78752
2016-06-08T08:34:45.783Z,77088
2016-06-08T08:35:45.800Z,70816
2016-06-08T08:36:45.663Z,69248
2016-06-08T08:37:45.853Z,70528
2016-06-08T08:38:45.715Z,72608
2016-06-08T08:39:45.890Z,71488
2016-06-08T08:40:45.752Z,71264
2016-06-08T08:41:45.927Z,73120
2016-06-08T08:42:45.648Z,72800
2016-06-08T08:43:45.995Z,70080
2016-06-08T08:44:46.606Z,69632
2016-06-08T08:45:46.031Z,70976
2016-06-08T08:46:46.049Z,71648
2016-06-08T08:47:46.083Z,72064
2016-06-08T08:48:46.101Z,74592
2016-06-08T08:49:46.119Z,77888
2016-06-08T08:50:45.982Z,78176
2016-06-08T08:51:46.156Z,76992
2016-06-08T08:52:46.018Z,76224
2016-06-08T08:53:46.224Z,78368
2016-06-08T08:54:46.070Z,82336
2016-06-08T08:55:46.245Z,81184
2016-06-08T08:56:46.263Z,81600
2016-06-08T08:57:47.876Z,56352
2016-06-08T08:58:47.098Z,22208
2016-06-08T08:59:48.694Z,12464
2016-06-08T09:01:01.570Z,12380
2016-06-08T09:01:47.496Z,12392
2016-06-08T09:02:46.374Z,12408
2016-06-08T09:03:47.501Z,12452
2016-06-08T09:04:46.910Z,12496
2016-06-08T09:05:46.928Z,12548
2016-06-08T09:06:47.384Z,12572
2016-06-08T09:07:46.965Z,12568
2016-06-08T09:08:46.780Z,12548
2016-06-08T09:09:48.345Z,12568
2016-06-08T09:11:00.692Z,12612
2016-06-08T09:12:15.569Z,12624
2016-06-08T09:12:47.822Z,12616
2016-06-08T09:13:46.278Z,12608
2016-06-08T09:14:46.578Z,12596
2016-06-08T09:15:46.314Z,12592
2016-06-08T09:16:46.286Z,12652
2016-06-08T09:17:46.617Z,12688
2016-06-08T09:18:46.463Z,12756
2016-06-08T09:19:46.654Z,12860
2016-06-08T09:20:46.657Z,12908
2016-06-08T09:21:46.660Z,12900
2016-06-08T09:22:46.677Z,12844
2016-06-08T09:23:46.680Z,12812
2016-06-08T09:24:46.698Z,12784
2016-06-08T09:25:46.716Z,12712
2016-06-08T09:26:46.719Z,12616
2016-06-08T09:27:46.722Z,12576
2016-06-08T09:28:46.928Z,12592
2016-06-08T09:29:46.898Z,12600
2016-06-08T09:30:46.777Z,12600
2016-06-08T09:31:46.623Z,12600
2016-06-08T09:32:46.798Z,12524
2016-06-08T09:33:46.800Z,12480
2016-06-08T09:34:46.819Z,12440
2016-06-08T09:35:46.822Z,12364
2016-06-08T09:36:46.824Z,12248
2016-06-08T09:37:46.686Z,12120
2016-06-08T09:38:46.845Z,12040
2016-06-08T09:39:46.708Z,11948
2016-06-08T09:40:46.867Z,11832
2016-06-08T09:41:46.884Z,11732
2016-06-08T09:42:46.887Z,11624
2016-06-08T09:43:47.515Z,11564
2016-06-08T09:44:46.597Z,11556
2016-06-08T09:45:46.911Z,11564
2016-06-08T09:46:46.930Z,11572
2016-06-08T09:47:46.947Z,11532
2016-06-08T09:48:46.950Z,11556
2016-06-08T09:49:46.969Z,11532
2016-06-08T09:50:46.815Z,11528
2016-06-08T09:51:46.974Z,11544
2016-06-08T09:52:46.976Z,11544
2016-06-08T09:53:46.996Z,11536
2016-06-08T09:54:46.998Z,11484
2016-06-08T09:55:47.016Z,11452
2016-06-08T09:56:47.018Z,11484
2016-06-08T09:57:47.021Z,11460
2016-06-08T09:58:46.884Z,11380
2016-06-08T09:59:46.979Z,11412
2016-06-08T10:00:47.060Z,11424
2016-06-08T10:01:47.079Z,11444
2016-06-08T10:02:47.066Z,11452
2016-06-08T10:03:47.084Z,11452
2016-06-08T10:04:47.087Z,11484
2016-06-08T10:05:47.090Z,11548
2016-06-08T10:06:47.109Z,11624
2016-06-08T10:07:47.112Z,11668
2016-06-08T10:08:47.128Z,11752
2016-06-08T10:09:47.132Z,11720
2016-06-08T10:10:47.134Z,11592
2016-06-08T10:11:47.153Z,11580
2016-06-08T10:12:47.156Z,11568
2016-06-08T10:13:47.189Z,11608
2016-06-08T10:14:48.067Z,11696
2016-06-08T10:15:47.195Z,11660
2016-06-08T10:16:47.198Z,11572
2016-06-08T10:17:47.356Z,11468
2016-06-08T10:18:47.202Z,11384
2016-06-08T10:19:48.299Z,11344
2016-06-08T10:20:48.411Z,11328
2016-06-08T10:21:47.696Z,11264
2016-06-08T10:22:48.401Z,11052
2016-06-08T10:23:47.310Z,11484
2016-06-08T10:24:47.281Z,12360
2016-06-08T10:25:48.987Z,12308
2016-06-08T10:26:48.162Z,11788
2016-06-08T10:27:48.524Z,11728
2016-06-08T10:28:48.855Z,11888
2016-06-08T10:29:47.607Z,11928
2016-06-08T10:30:47.391Z,11848
2016-06-08T10:31:47.393Z,11872
2016-06-08T10:32:48.022Z,11988
2016-06-08T10:33:47.415Z,12192
2016-06-08T10:34:47.590Z,11960
2016-06-08T10:35:47.404Z,11900
2016-06-08T10:36:47.376Z,11576
2016-06-08T10:37:47.379Z,11440
2016-06-08T10:38:47.382Z,11304
2016-06-08T10:39:47.384Z,11280
2016-06-08T10:40:47.403Z,11116
2016-06-08T10:41:47.437Z,10964
2016-06-08T10:42:47.423Z,11028
2016-06-08T10:43:47.645Z,11328
2016-06-08T10:44:48.086Z,11452
2016-06-08T10:45:47.447Z,11424
2016-06-08T10:46:47.309Z,11492
2016-06-08T10:47:47.468Z,11380
2016-06-08T10:48:47.471Z,11240
2016-06-08T10:49:47.474Z,10968
2016-06-08T10:50:47.492Z,10948
2016-06-08T10:51:47.385Z,11072
2016-06-08T10:52:49.638Z,10896
2016-06-08T10:53:47.516Z,10732
2016-06-08T10:54:47.566Z,10544
2016-06-08T10:55:47.537Z,10376
2016-06-08T10:56:47.523Z,10308
2016-06-08T10:57:47.542Z,10256
2016-06-08T10:58:47.248Z,10240
2016-06-08T10:59:48.282Z,10224
2016-06-08T11:00:47.566Z,9964
2016-06-08T11:01:47.429Z,10368
2016-06-08T11:02:47.587Z,10228
2016-06-08T11:03:47.434Z,10076
2016-06-08T11:04:47.623Z,10032
2016-06-08T11:05:47.610Z,9968
2016-06-08T11:06:47.629Z,9880
2016-06-08T11:07:47.648Z,9888
2016-06-08T11:08:47.634Z,9908
2016-06-08T11:09:47.637Z,9928
2016-06-08T11:10:47.655Z,9960
2016-06-08T11:11:47.689Z,9928
2016-06-08T11:12:47.676Z,9892
2016-06-08T11:13:51.710Z,9844
2016-06-08T11:14:49.541Z,9752
2016-06-08T11:15:47.544Z,9732
2016-06-08T11:16:47.702Z,9792
2016-06-08T11:17:47.705Z,9876
2016-06-08T11:18:47.724Z,10104
2016-06-08T11:19:47.726Z,10648
2016-06-08T11:20:47.730Z,10536
2016-06-08T11:21:47.748Z,10700
2016-06-08T11:22:47.749Z,11024
2016-06-08T11:23:47.753Z,10852
2016-06-08T11:24:47.615Z,11004
2016-06-08T11:25:47.774Z,11100
2016-06-08T11:26:47.792Z,11004
2016-06-08T11:27:47.794Z,10956
2016-06-08T11:28:48.516Z,10712
2016-06-08T11:29:48.941Z,10452
2016-06-08T11:30:47.849Z,11356
2016-06-08T11:31:47.821Z,12344
2016-06-08T11:32:47.668Z,13088
2016-06-08T11:33:47.842Z,12272
2016-06-08T11:34:49.157Z,12112
2016-06-08T11:35:48.691Z,13964
2016-06-08T11:36:47.865Z,13416
2016-06-08T11:37:47.868Z,11824
2016-06-08T11:39:02.370Z,10616
2016-06-08T11:39:49.201Z,10152
2016-06-08T11:41:02.471Z,9604
2016-06-08T11:41:48.176Z,10632
2016-06-08T11:42:48.070Z,12256
2016-06-08T11:43:48.509Z,11320
2016-06-08T11:44:48.700Z,10036
2016-06-08T11:45:48.265Z,10932
2016-06-08T11:46:48.190Z,11420
2016-06-08T11:47:48.208Z,10572
2016-06-08T11:48:48.555Z,9740
2016-06-08T11:49:49.135Z,10064
2016-06-08T11:50:48.231Z,10700
2016-06-08T11:51:48.141Z,10548
2016-06-08T11:52:48.033Z,10372
2016-06-08T11:53:47.864Z,10236
2016-06-08T11:54:48.024Z,9760
2016-06-08T11:55:47.713Z,9476
2016-06-08T11:56:48.061Z,10352
2016-06-08T11:57:47.735Z,10560
2016-06-08T11:58:47.752Z,10612
2016-06-08T11:59:49.193Z,10764
2016-06-08T12:00:48.258Z,10188
2016-06-08T12:01:48.089Z,9704
2016-06-08T12:02:48.093Z,9336
2016-06-08T12:03:47.782Z,9100
2016-06-08T12:04:47.956Z,9384
2016-06-08T12:05:48.132Z,12072
2016-06-08T12:06:48.118Z,11012
2016-06-08T12:07:47.981Z,9760
2016-06-08T12:08:48.015Z,10444
2016-06-08T12:09:48.157Z,10436
2016-06-08T12:10:48.160Z,10572
2016-06-08T12:11:48.023Z,10116
2016-06-08T12:12:48.384Z,9676
2016-06-08T12:13:48.028Z,9632
2016-06-08T12:14:48.046Z,9184
2016-06-08T12:15:47.892Z,9460
2016-06-08T12:16:48.208Z,9176
2016-06-08T12:17:48.211Z,9064
2016-06-08T12:18:48.072Z,9424
2016-06-08T12:19:48.231Z,9472
2016-06-08T12:20:48.233Z,9664
2016-06-08T12:21:48.096Z,9884
2016-06-08T12:22:48.255Z,10260
2016-06-08T12:23:48.258Z,10328
2016-06-08T12:24:48.276Z,10160
2016-06-08T12:25:48.279Z,9944
2016-06-08T12:26:48.141Z,9760
2016-06-08T12:27:48.300Z,9472
2016-06-08T12:28:48.303Z,9276
2016-06-08T12:29:48.602Z,9400
2016-06-08T12:30:48.323Z,9224
2016-06-08T12:31:48.342Z,8788
2016-06-08T12:32:48.329Z,8636
2016-06-08T12:33:48.347Z,9132
2016-06-08T12:34:48.349Z,11096
2016-06-08T12:35:48.352Z,12352
2016-06-08T12:36:48.371Z,12512
2016-06-08T12:37:48.373Z,11848
2016-06-08T12:38:48.376Z,10972
2016-06-08T12:39:48.395Z,10756
2016-06-08T12:40:48.240Z,10928
2016-06-08T12:41:48.415Z,12024
2016-06-08T12:42:48.418Z,12168
2016-06-08T12:43:48.421Z,13704
2016-06-08T12:44:48.736Z,14408
2016-06-08T12:45:48.442Z,13048
2016-06-08T12:46:48.445Z,11696
2016-06-08T12:47:48.478Z,12228
2016-06-08T12:48:48.466Z,13956
2016-06-08T12:49:48.484Z,13432
2016-06-08T12:50:48.486Z,11568
2016-06-08T12:51:48.489Z,10832
2016-06-08T12:52:48.492Z,10996
2016-06-08T12:53:48.510Z,11832
2016-06-08T12:54:49.107Z,12860
2016-06-08T12:55:48.813Z,13036
2016-06-08T12:57:03.393Z,12608
2016-06-08T12:57:49.037Z,12348
2016-06-08T12:58:48.696Z,11800
2016-06-08T12:59:48.730Z,11556
2016-06-08T13:00:53.139Z,11164
2016-06-08T13:01:48.829Z,11068
2016-06-08T13:02:50.160Z,10776
2016-06-08T13:03:49.943Z,10260
2016-06-08T13:04:48.618Z,9904
2016-06-08T13:05:50.933Z,9472
2016-06-08T13:06:49.748Z,9076
2016-06-08T13:07:48.626Z,8720
2016-06-08T13:08:48.690Z,8516
2016-06-08T13:09:49.412Z,7972
2016-06-08T13:10:48.666Z,7740
2016-06-08T13:11:48.559Z,7596
2016-06-08T13:12:48.670Z,8256
2016-06-08T13:13:48.720Z,8788
2016-06-08T13:14:48.895Z,8712
2016-06-08T13:15:49.820Z,8360
2016-06-08T13:16:48.712Z,8328
2016-06-08T13:17:48.715Z,8588
2016-06-08T13:18:48.733Z,9380
2016-06-08T13:19:48.580Z,9844